LiveATC.Net - Listen to live air traffic control over the Internet!


ICAO: 38W  IATA: 38W   Airport: Lynden Municipal Airport/Jansen Field
City: Lynden   State/Province: Washington
Country: United States   Continent: North America
CYXX METAR Weather: CYXX 241400Z 33004KT 15SM -RA OVC048 09/07 A2998 RMK SC8 SLP156
38W ADS-B Flight Tracking  (ADSBExchange)
38W Flight Activity (FlightAware)
38W Airport Info   (iFlightPlanner)
38W VFR Sectional Chart   (iFlightPlanner) 
38W IFR Low Altitude Chart   (iFlightPlanner) 
38W IFR High Altitude Chart   (iFlightPlanner) 

38W CTAF
Feed Status: UP   Listeners: 0
Listen in your browser - HTML5 player (in browser, HTML5)
Click here to listen with your own player (launches your MP3 player)
Archive Access: 38W CTAF
FacilityFrequency
Lynden CTAF122.900
38W Airport Schematic

NOTICE

Unauthorized use prohibited. See LiveATC.net Terms of Service


Airport/ARTCC Code
Frequency Search
(e.g., 124.400, 128.75)
Site-wide search
 


Browse Feeds
Top 50 Feeds
HF Oceanic Feeds
Coverage Map
Bad Weather Areas

LiveATC FAQ

Increase Coverage

Contact LiveATC.net
Press Inquiries

LiveATC on iPhone
LiveATC on Android

LiveATC Mobile
(Mobile browser)

ATC Audio Archives
Interesting Recordings

LiveATC Forums


Home Page
About LiveATC.net


Terms of Use
Privacy Policy

AIRMETs/SIGMETs

FAA Airport Status
NAS Status
Arrival Demand


Server Software By:
Icecast.org
Liquidsoap